sensor_id;sensor_type;location;lat;lon;timestamp;pressure;altitude;pressure_sealevel;temperature
15360;BMP280;7779;49.596;11.070;2022-10-31T00:01:24;98775.97;;;13.59
15360;BMP280;7779;49.596;11.070;2022-10-31T00:03:50;98775.81;;;13.56
15360;BMP280;7779;49.596;11.070;2022-10-31T00:06:16;98784.94;;;13.54
15360;BMP280;7779;49.596;11.070;2022-10-31T00:08:53;98781.47;;;13.52
15360;BMP280;7779;49.596;11.070;2022-10-31T00:11:19;98786.34;;;13.49
15360;BMP280;7779;49.596;11.070;2022-10-31T00:13:45;98789.66;;;13.48
15360;BMP280;7779;49.596;11.070;2022-10-31T00:16:20;98779.50;;;13.46
15360;BMP280;7779;49.596;11.070;2022-10-31T00:18:51;98783.50;;;13.43
15360;BMP280;7779;49.596;11.070;2022-10-31T00:21:17;98778.31;;;13.40
15360;BMP280;7779;49.596;11.070;2022-10-31T00:23:43;98780.75;;;13.38
15360;BMP280;7779;49.596;11.070;2022-10-31T00:26:08;98783.97;;;13.36
15360;BMP280;7779;49.596;11.070;2022-10-31T00:28:34;98783.03;;;13.34
15360;BMP280;7779;49.596;11.070;2022-10-31T00:31:03;98779.59;;;13.32
15360;BMP280;7779;49.596;11.070;2022-10-31T00:33:29;98780.22;;;13.28
15360;BMP280;7779;49.596;11.070;2022-10-31T00:35:56;98779.28;;;13.26
15360;BMP280;7779;49.596;11.070;2022-10-31T00:38:23;98778.38;;;13.26
15360;BMP280;7779;49.596;11.070;2022-10-31T00:40:48;98771.56;;;13.23
15360;BMP280;7779;49.596;11.070;2022-10-31T00:43:15;98778.25;;;13.23
15360;BMP280;7779;49.596;11.070;2022-10-31T00:45:42;98783.19;;;13.21
15360;BMP280;7779;49.596;11.070;2022-10-31T00:48:09;98785.72;;;13.21
15360;BMP280;7779;49.596;11.070;2022-10-31T00:50:35;98777.22;;;13.19
15360;BMP280;7779;49.596;11.070;2022-10-31T00:53:01;98773.75;;;13.17
15360;BMP280;7779;49.596;11.070;2022-10-31T00:55:27;98777.03;;;13.16
15360;BMP280;7779;49.596;11.070;2022-10-31T00:57:52;98770.97;;;13.13
15360;BMP280;7779;49.596;11.070;2022-10-31T01:00:18;98772.66;;;13.12
15360;BMP280;7779;49.596;11.070;2022-10-31T01:02:45;98780.03;;;13.09
15360;BMP280;7779;49.596;11.070;2022-10-31T01:05:11;98779.94;;;13.08
15360;BMP280;7779;49.596;11.070;2022-10-31T01:07:39;98778.94;;;13.04
15360;BMP280;7779;49.596;11.070;2022-10-31T01:10:09;98775.44;;;13.02
15360;BMP280;7779;49.596;11.070;2022-10-31T01:12:41;98778.75;;;13.01
15360;BMP280;7779;49.596;11.070;2022-10-31T01:15:09;98775.22;;;12.98
15360;BMP280;7779;49.596;11.070;2022-10-31T01:17:35;98771.66;;;12.94
15360;BMP280;7779;49.596;11.070;2022-10-31T01:20:03;98770.72;;;12.92
15360;BMP280;7779;49.596;11.070;2022-10-31T01:22:30;98777.31;;;12.90
15360;BMP280;7779;49.596;11.070;2022-10-31T01:25:00;98773.88;;;12.88
15360;BMP280;7779;49.596;11.070;2022-10-31T01:27:25;98778.72;;;12.86
15360;BMP280;7779;49.596;11.070;2022-10-31T01:29:51;98771.88;;;12.83
15360;BMP280;7779;49.596;11.070;2022-10-31T01:32:17;98771.81;;;12.82
15360;BMP280;7779;49.596;11.070;2022-10-31T01:34:44;98774.91;;;12.78
15360;BMP280;7779;49.596;11.070;2022-10-31T01:37:12;98777.34;;;12.76
15360;BMP280;7779;49.596;11.070;2022-10-31T01:39:38;98777.16;;;12.73
15360;BMP280;7779;49.596;11.070;2022-10-31T01:42:03;98777.94;;;12.72
15360;BMP280;7779;49.596;11.070;2022-10-31T01:47:11;98771.81;;;12.67
15360;BMP280;7779;49.596;11.070;2022-10-31T01:49:46;98778.31;;;12.64
15360;BMP280;7779;49.596;11.070;2022-10-31T01:52:32;98775.63;;;12.61
15360;BMP280;7779;49.596;11.070;2022-10-31T01:55:05;98780.50;;;12.58
15360;BMP280;7779;49.596;11.070;2022-10-31T01:57:33;98782.06;;;12.56
15360;BMP280;7779;49.596;11.070;2022-10-31T02:00:06;98789.50;;;12.54
15360;BMP280;7779;49.596;11.070;2022-10-31T02:02:39;98780.00;;;12.49
15360;BMP280;7779;49.596;11.070;2022-10-31T02:05:10;98783.28;;;12.48
15360;BMP280;7779;49.596;11.070;2022-10-31T02:07:53;98791.63;;;12.47
15360;BMP280;7779;49.596;11.070;2022-10-31T02:10:27;98782.94;;;12.42
15360;BMP280;7779;49.596;11.070;2022-10-31T02:12:58;98782.94;;;12.42
15360;BMP280;7779;49.596;11.070;2022-10-31T02:15:25;98787.03;;;12.40
15360;BMP280;7779;49.596;11.070;2022-10-31T02:17:52;98784.31;;;12.37
15360;BMP280;7779;49.596;11.070;2022-10-31T02:20:21;98786.84;;;12.37
15360;BMP280;7779;49.596;11.070;2022-10-31T02:26:31;98780.88;;;12.35
15360;BMP280;7779;49.596;11.070;2022-10-31T02:32:29;98779.91;;;12.33
15360;BMP280;7779;49.596;11.070;2022-10-31T02:38:29;98772.38;;;12.33
15360;BMP280;7779;49.596;11.070;2022-10-31T02:47:03;98769.09;;;12.34
15360;BMP280;7779;49.596;11.070;2022-10-31T02:49:59;98767.44;;;12.35
15360;BMP280;7779;49.596;11.070;2022-10-31T02:52:29;98771.63;;;12.34
15360;BMP280;7779;49.596;11.070;2022-10-31T02:58:09;98763.91;;;12.31
15360;BMP280;7779;49.596;11.070;2022-10-31T03:01:20;98761.56;;;12.34
15360;BMP280;7779;49.596;11.070;2022-10-31T03:04:22;98762.34;;;12.33
15360;BMP280;7779;49.596;11.070;2022-10-31T03:07:05;98763.91;;;12.31
15360;BMP280;7779;49.596;11.070;2022-10-31T03:09:46;98771.44;;;12.31
15360;BMP280;7779;49.596;11.070;2022-10-31T03:12:29;98763.91;;;12.31
15360;BMP280;7779;49.596;11.070;2022-10-31T03:15:30;98762.16;;;12.30
15360;BMP280;7779;49.596;11.070;2022-10-31T03:18:07;98768.75;;;12.28
15360;BMP280;7779;49.596;11.070;2022-10-31T03:21:04;98771.16;;;12.27
15360;BMP280;7779;49.596;11.070;2022-10-31T03:23:37;98777.84;;;12.26
15360;BMP280;7779;49.596;11.070;2022-10-31T03:26:07;98773.63;;;12.25
15360;BMP280;7779;49.596;11.070;2022-10-31T03:28:52;98775.31;;;12.26
15360;BMP280;7779;49.596;11.070;2022-10-31T03:31:27;98776.13;;;12.25
15360;BMP280;7779;49.596;11.070;2022-10-31T03:33:58;98774.38;;;12.24
15360;BMP280;7779;49.596;11.070;2022-10-31T03:36:33;98780.16;;;12.23
15360;BMP280;7779;49.596;11.070;2022-10-31T03:39:02;98771.69;;;12.21
15360;BMP280;7779;49.596;11.070;2022-10-31T03:41:36;98771.53;;;12.18
15360;BMP280;7779;49.596;11.070;2022-10-31T03:44:11;98775.63;;;12.16
15360;BMP280;7779;49.596;11.070;2022-10-31T03:46:40;98782.09;;;12.13
15360;BMP280;7779;49.596;11.070;2022-10-31T03:49:06;98785.38;;;12.12
15360;BMP280;7779;49.596;11.070;2022-10-31T03:51:43;98781.91;;;12.10
15360;BMP280;7779;49.596;11.070;2022-10-31T03:54:40;98791.78;;;12.07
15360;BMP280;7779;49.596;11.070;2022-10-31T03:57:19;98791.53;;;12.03
15360;BMP280;7779;49.596;11.070;2022-10-31T03:59:54;98781.31;;;12.00
15360;BMP280;7779;49.596;11.070;2022-10-31T04:02:29;98791.94;;;11.96
15360;BMP280;7779;49.596;11.070;2022-10-31T04:04:57;98783.28;;;11.91
15360;BMP280;7779;49.596;11.070;2022-10-31T04:07:28;98784.09;;;11.90
15360;BMP280;7779;49.596;11.070;2022-10-31T04:09:57;98780.63;;;11.88
15360;BMP280;7779;49.596;11.070;2022-10-31T04:12:26;98780.44;;;11.85
15360;BMP280;7779;49.596;11.070;2022-10-31T04:15:12;98780.34;;;11.83
15360;BMP280;7779;49.596;11.070;2022-10-31T04:17:43;98785.25;;;11.82
15360;BMP280;7779;49.596;11.070;2022-10-31T04:20:11;98786.06;;;11.81
15360;BMP280;7779;49.596;11.070;2022-10-31T04:22:36;98784.25;;;11.78
15360;BMP280;7779;49.596;11.070;2022-10-31T04:25:02;98782.59;;;11.79
15360;BMP280;7779;49.596;11.070;2022-10-31T04:27:28;98782.59;;;11.79
15360;BMP280;7779;49.596;11.070;2022-10-31T04:29:54;98785.00;;;11.77
15360;BMP280;7779;49.596;11.070;2022-10-31T04:32:20;98785.72;;;11.75
15360;BMP280;7779;49.596;11.070;2022-10-31T04:34:45;98779.03;;;11.75
15360;BMP280;7779;49.596;11.070;2022-10-31T04:37:11;98779.03;;;11.75
15360;BMP280;7779;49.596;11.070;2022-10-31T04:39:37;98774.78;;;11.74
15360;BMP280;7779;49.596;11.070;2022-10-31T04:42:21;98779.75;;;11.73
15360;BMP280;7779;49.596;11.070;2022-10-31T04:44:47;98788.03;;;11.72
15360;BMP280;7779;49.596;11.070;2022-10-31T04:47:13;98772.88;;;11.70
15360;BMP280;7779;49.596;11.070;2022-10-31T04:49:39;98767.88;;;11.70
15360;BMP280;7779;49.596;11.070;2022-10-31T04:52:06;98769.31;;;11.67
15360;BMP280;7779;49.596;11.070;2022-10-31T04:54:34;98762.59;;;11.66
15360;BMP280;7779;49.596;11.070;2022-10-31T04:57:18;98776.69;;;11.64
15360;BMP280;7779;49.596;11.070;2022-10-31T04:59:45;98774.00;;;11.61
15360;BMP280;7779;49.596;11.070;2022-10-31T05:02:11;98779.78;;;11.60
15360;BMP280;7779;49.596;11.070;2022-10-31T05:04:44;98768.78;;;11.58
15360;BMP280;7779;49.596;11.070;2022-10-31T05:07:10;98771.03;;;11.54
15360;BMP280;7779;49.596;11.070;2022-10-31T05:09:36;98767.59;;;11.52
15360;BMP280;7779;49.596;11.070;2022-10-31T05:12:01;98774.22;;;11.51
15360;BMP280;7779;49.596;11.070;2022-10-31T05:14:45;98774.06;;;11.48
15360;BMP280;7779;49.596;11.070;2022-10-31T05:17:31;98773.00;;;11.45
15360;BMP280;7779;49.596;11.070;2022-10-31T05:20:18;98770.28;;;11.42
15360;BMP280;7779;49.596;11.070;2022-10-31T05:23:02;98779.34;;;11.40
15360;BMP280;7779;49.596;11.070;2022-10-31T05:25:29;98763.44;;;11.39
15360;BMP280;7779;49.596;11.070;2022-10-31T05:27:56;98771.75;;;11.38
15360;BMP280;7779;49.596;11.070;2022-10-31T05:30:29;98761.59;;;11.37
15360;BMP280;7779;49.596;11.070;2022-10-31T05:32:56;98767.41;;;11.36
15360;BMP280;7779;49.596;11.070;2022-10-31T05:35:40;98771.38;;;11.32
15360;BMP280;7779;49.596;11.070;2022-10-31T05:38:25;98776.22;;;11.29
15360;BMP280;7779;49.596;11.070;2022-10-31T05:40:56;98774.50;;;11.29
15360;BMP280;7779;49.596;11.070;2022-10-31T05:43:28;98768.41;;;11.25
15360;BMP280;7779;49.596;11.070;2022-10-31T05:45:55;98765.81;;;11.24
15360;BMP280;7779;49.596;11.070;2022-10-31T05:48:59;98773.16;;;11.21
15360;BMP280;7779;49.596;11.070;2022-10-31T05:51:43;98780.50;;;11.18
15360;BMP280;7779;49.596;11.070;2022-10-31T05:54:09;98779.72;;;11.19
15360;BMP280;7779;49.596;11.070;2022-10-31T05:56:37;98780.50;;;11.18
15360;BMP280;7779;49.596;11.070;2022-10-31T05:59:02;98778.97;;;11.20
15360;BMP280;7779;49.596;11.070;2022-10-31T06:01:28;98782.22;;;11.19
15360;BMP280;7779;49.596;11.070;2022-10-31T06:03:57;98782.41;;;11.22
15360;BMP280;7779;49.596;11.070;2022-10-31T06:06:24;98780.78;;;11.22
15360;BMP280;7779;49.596;11.070;2022-10-31T06:08:49;98775.84;;;11.24
15360;BMP280;7779;49.596;11.070;2022-10-31T06:11:19;98777.59;;;11.25
15360;BMP280;7779;49.596;11.070;2022-10-31T06:14:04;98781.91;;;11.27
15360;BMP280;7779;49.596;11.070;2022-10-31T06:16:45;98773.63;;;11.28
15360;BMP280;7779;49.596;11.070;2022-10-31T06:19:31;98779.50;;;11.29
15360;BMP280;7779;49.596;11.070;2022-10-31T06:21:58;98788.00;;;11.30
15360;BMP280;7779;49.596;11.070;2022-10-31T06:24:23;98781.41;;;11.32
15360;BMP280;7779;49.596;11.070;2022-10-31T06:26:52;98783.22;;;11.35
15360;BMP280;7779;49.596;11.070;2022-10-31T06:29:17;98779.16;;;11.37
15360;BMP280;7779;49.596;11.070;2022-10-31T06:32:15;98780.91;;;11.38
15360;BMP280;7779;49.596;11.070;2022-10-31T06:34:43;98786.97;;;11.41
15360;BMP280;7779;49.596;11.070;2022-10-31T06:37:12;98783.06;;;11.45
15360;BMP280;7779;49.596;11.070;2022-10-31T06:39:40;98777.34;;;11.47
15360;BMP280;7779;49.596;11.070;2022-10-31T06:42:09;98786.75;;;11.51
15360;BMP280;7779;49.596;11.070;2022-10-31T06:44:34;98788.72;;;11.55
15360;BMP280;7779;49.596;11.070;2022-10-31T06:47:19;98790.63;;;11.59
15360;BMP280;7779;49.596;11.070;2022-10-31T06:49:56;98795.03;;;11.63
15360;BMP280;7779;49.596;11.070;2022-10-31T06:52:23;98801.19;;;11.68
15360;BMP280;7779;49.596;11.070;2022-10-31T06:54:50;98799.72;;;11.71
15360;BMP280;7779;49.596;11.070;2022-10-31T06:57:15;98794.00;;;11.74
15360;BMP280;7779;49.596;11.070;2022-10-31T06:59:41;98796.09;;;11.81
15360;BMP280;7779;49.596;11.070;2022-10-31T07:02:17;98792.28;;;11.87
15360;BMP280;7779;49.596;11.070;2022-10-31T07:04:43;98794.28;;;11.93
15360;BMP280;7779;49.596;11.070;2022-10-31T07:07:12;98793.84;;;12.00
15360;BMP280;7779;49.596;11.070;2022-10-31T07:09:38;98795.09;;;12.06
15360;BMP280;7779;49.596;11.070;2022-10-31T07:12:05;98792.06;;;12.11
15360;BMP280;7779;49.596;11.070;2022-10-31T07:14:34;98791.63;;;12.18
15360;BMP280;7779;49.596;11.070;2022-10-31T07:17:01;98789.44;;;12.24
15360;BMP280;7779;49.596;11.070;2022-10-31T07:19:33;98787.28;;;12.30
15360;BMP280;7779;49.596;11.070;2022-10-31T07:21:59;98790.16;;;12.36
15360;BMP280;7779;49.596;11.070;2022-10-31T07:24:28;98793.00;;;12.42
15360;BMP280;7779;49.596;11.070;2022-10-31T07:27:13;98787.63;;;12.50
15360;BMP280;7779;49.596;11.070;2022-10-31T07:29:38;98793.84;;;12.57
15360;BMP280;7779;49.596;11.070;2022-10-31T07:32:04;98789.31;;;12.66
15360;BMP280;7779;49.596;11.070;2022-10-31T07:34:31;98789.63;;;12.72
15360;BMP280;7779;49.596;11.070;2022-10-31T07:37:03;98794.44;;;12.82
15360;BMP280;7779;49.596;11.070;2022-10-31T07:39:30;98790.75;;;12.91
15360;BMP280;7779;49.596;11.070;2022-10-31T07:41:58;98792.19;;;13.02
15360;BMP280;7779;49.596;11.070;2022-10-31T07:44:24;98790.09;;;13.09
15360;BMP280;7779;49.596;11.070;2022-10-31T07:47:19;98792.44;;;13.22
15360;BMP280;7779;49.596;11.070;2022-10-31T07:50:28;98788.94;;;13.34
15360;BMP280;7779;49.596;11.070;2022-10-31T07:53:13;98800.34;;;13.44
15360;BMP280;7779;49.596;11.070;2022-10-31T07:55:52;98792.47;;;13.54
15360;BMP280;7779;49.596;11.070;2022-10-31T07:58:19;98792.16;;;13.64
15360;BMP280;7779;49.596;11.070;2022-10-31T08:00:47;98790.03;;;13.71
15360;BMP280;7779;49.596;11.070;2022-10-31T08:03:18;98795.59;;;13.81
15360;BMP280;7779;49.596;11.070;2022-10-31T08:06:13;98788.50;;;13.90
15360;BMP280;7779;49.596;11.070;2022-10-31T08:09:06;98778.97;;;14.01
15360;BMP280;7779;49.596;11.070;2022-10-31T08:11:32;98779.28;;;14.06
15360;BMP280;7779;49.596;11.070;2022-10-31T08:14:00;98776.53;;;14.18
15360;BMP280;7779;49.596;11.070;2022-10-31T08:16:27;98775.31;;;14.27
15360;BMP280;7779;49.596;11.070;2022-10-31T08:18:59;98768.28;;;14.38
15360;BMP280;7779;49.596;11.070;2022-10-31T08:21:27;98773.88;;;14.49
15360;BMP280;7779;49.596;11.070;2022-10-31T08:23:54;98769.34;;;14.60
15360;BMP280;7779;49.596;11.070;2022-10-31T08:26:22;98761.34;;;14.68
15360;BMP280;7779;49.596;11.070;2022-10-31T08:28:50;98766.94;;;14.80
15360;BMP280;7779;49.596;11.070;2022-10-31T08:31:19;98769.13;;;14.90
15360;BMP280;7779;49.596;11.070;2022-10-31T08:33:45;98772.06;;;14.99
15360;BMP280;7779;49.596;11.070;2022-10-31T08:36:45;98769.97;;;15.08
15360;BMP280;7779;49.596;11.070;2022-10-31T08:39:16;98764.38;;;15.15
15360;BMP280;7779;49.596;11.070;2022-10-31T08:41:42;98753.94;;;15.24
15360;BMP280;7779;49.596;11.070;2022-10-31T08:44:11;98749.28;;;15.33
15360;BMP280;7779;49.596;11.070;2022-10-31T08:46:37;98755.50;;;15.41
15360;BMP280;7779;49.596;11.070;2022-10-31T08:49:03;98756.72;;;15.49
15360;BMP280;7779;49.596;11.070;2022-10-31T08:51:29;98750.34;;;15.57
15360;BMP280;7779;49.596;11.070;2022-10-31T08:53:55;98748.06;;;15.63
15360;BMP280;7779;49.596;11.070;2022-10-31T08:56:59;98741.81;;;15.74
15360;BMP280;7779;49.596;11.070;2022-10-31T08:59:39;98740.56;;;15.83
15360;BMP280;7779;49.596;11.070;2022-10-31T09:02:13;98743.38;;;15.91
15360;BMP280;7779;49.596;11.070;2022-10-31T09:04:39;98741.03;;;15.95
15360;BMP280;7779;49.596;11.070;2022-10-31T09:07:05;98736.22;;;16.01
15360;BMP280;7779;49.596;11.070;2022-10-31T09:09:31;98745.78;;;16.08
15360;BMP280;7779;49.596;11.070;2022-10-31T09:11:57;98737.59;;;16.13
15360;BMP280;7779;49.596;11.070;2022-10-31T09:14:42;98741.22;;;16.18
15360;BMP280;7779;49.596;11.070;2022-10-31T09:17:21;98739.84;;;16.26
15360;BMP280;7779;49.596;11.070;2022-10-31T09:20:10;98739.34;;;16.35
15360;BMP280;7779;49.596;11.070;2022-10-31T09:22:37;98736.41;;;16.44
15360;BMP280;7779;49.596;11.070;2022-10-31T09:25:03;98730.81;;;16.53
15360;BMP280;7779;49.596;11.070;2022-10-31T09:27:29;98733.00;;;16.66
15360;BMP280;7779;49.596;11.070;2022-10-31T09:29:56;98731.75;;;16.77
15360;BMP280;7779;49.596;11.070;2022-10-31T09:32:22;98717.81;;;16.86
15360;BMP280;7779;49.596;11.070;2022-10-31T09:34:48;98721.59;;;16.97
15360;BMP280;7779;49.596;11.070;2022-10-31T09:37:18;98725.38;;;17.08
15360;BMP280;7779;49.596;11.070;2022-10-31T09:39:44;98724.13;;;17.19
15360;BMP280;7779;49.596;11.070;2022-10-31T09:43:03;98716.28;;;17.34
15360;BMP280;7779;49.596;11.070;2022-10-31T09:46:01;98712.50;;;17.47
15360;BMP280;7779;49.596;11.070;2022-10-31T09:51:43;98715.97;;;17.73
15360;BMP280;7779;49.596;11.070;2022-10-31T09:54:39;98709.66;;;17.86
15360;BMP280;7779;49.596;11.070;2022-10-31T09:57:15;98711.84;;;18.00
15360;BMP280;7779;49.596;11.070;2022-10-31T09:59:47;98709.75;;;18.12
15360;BMP280;7779;49.596;11.070;2022-10-31T10:02:28;98705.16;;;18.27
15360;BMP280;7779;49.596;11.070;2022-10-31T10:05:03;98697.13;;;18.39
15360;BMP280;7779;49.596;11.070;2022-10-31T10:08:01;98699.31;;;18.55
15360;BMP280;7779;49.596;11.070;2022-10-31T10:25:47;98669.59;;;19.37
15360;BMP280;7779;49.596;11.070;2022-10-31T10:28:33;98664.91;;;19.51
15360;BMP280;7779;49.596;11.070;2022-10-31T10:39:15;98660.16;;;19.95
15360;BMP280;7779;49.596;11.070;2022-10-31T10:41:48;98651.03;;;20.02
15360;BMP280;7779;49.596;11.070;2022-10-31T10:44:33;98656.34;;;20.13
15360;BMP280;7779;49.596;11.070;2022-10-31T10:47:19;98641.34;;;20.23
15360;BMP280;7779;49.596;11.070;2022-10-31T10:50:20;98645.09;;;20.37
15360;BMP280;7779;49.596;11.070;2022-10-31T10:55:58;98632.06;;;20.62
15360;BMP280;7779;49.596;11.070;2022-10-31T10:58:25;98628.84;;;20.69
15360;BMP280;7779;49.596;11.070;2022-10-31T11:00:53;98618.94;;;20.80
15360;BMP280;7779;49.596;11.070;2022-10-31T11:03:20;98619.13;;;20.89
15360;BMP280;7779;49.596;11.070;2022-10-31T11:05:53;98626.16;;;21.02
15360;BMP280;7779;49.596;11.070;2022-10-31T11:08:28;98616.16;;;21.11
15360;BMP280;7779;49.596;11.070;2022-10-31T11:11:31;98612.94;;;21.19
15360;BMP280;7779;49.596;11.070;2022-10-31T11:14:12;98616.50;;;21.29
15360;BMP280;7779;49.596;11.070;2022-10-31T11:16:45;98611.59;;;21.38
15360;BMP280;7779;49.596;11.070;2022-10-31T11:19:26;98593.91;;;21.45
15360;BMP280;7779;49.596;11.070;2022-10-31T11:21:53;98599.13;;;21.53
15360;BMP280;7779;49.596;11.070;2022-10-31T11:24:24;98595.88;;;21.59
15360;BMP280;7779;49.596;11.070;2022-10-31T11:27:13;98573.06;;;21.68
15360;BMP280;7779;49.596;11.070;2022-10-31T11:29:39;98565.50;;;21.74
15360;BMP280;7779;49.596;11.070;2022-10-31T11:32:05;98564.78;;;21.81
15360;BMP280;7779;49.596;11.070;2022-10-31T11:34:44;98553.88;;;21.90
15360;BMP280;7779;49.596;11.070;2022-10-31T11:37:25;98562.53;;;21.99
15360;BMP280;7779;49.596;11.070;2022-10-31T11:39:58;98572.88;;;22.08
15360;BMP280;7779;49.596;11.070;2022-10-31T11:42:38;98557.75;;;22.20
15360;BMP280;7779;49.596;11.070;2022-10-31T11:47:56;98545.28;;;22.40
15360;BMP280;7779;49.596;11.070;2022-10-31T11:50:35;98547.09;;;22.50
15360;BMP280;7779;49.596;11.070;2022-10-31T11:53:03;98533.56;;;22.56
15360;BMP280;7779;49.596;11.070;2022-10-31T11:55:37;98538.75;;;22.60
15360;BMP280;7779;49.596;11.070;2022-10-31T11:58:04;98537.91;;;22.63
15360;BMP280;7779;49.596;11.070;2022-10-31T12:00:37;98528.59;;;22.66
15360;BMP280;7779;49.596;11.070;2022-10-31T12:05:55;98525.28;;;22.73
15360;BMP280;7779;49.596;11.070;2022-10-31T12:08:35;98518.50;;;22.76
15360;BMP280;7779;49.596;11.070;2022-10-31T12:14:15;98516.91;;;22.86
15360;BMP280;7779;49.596;11.070;2022-10-31T12:17:05;98510.19;;;22.91
15360;BMP280;7779;49.596;11.070;2022-10-31T12:19:42;98508.53;;;22.96
15360;BMP280;7779;49.596;11.070;2022-10-31T12:22:31;98512.84;;;23.01
15360;BMP280;7779;49.596;11.070;2022-10-31T12:25:25;98507.75;;;23.04
15360;BMP280;7779;49.596;11.070;2022-10-31T12:28:35;98503.53;;;23.08
15360;BMP280;7779;49.596;11.070;2022-10-31T12:40:43;98485.75;;;23.16
15360;BMP280;7779;49.596;11.070;2022-10-31T12:45:55;98475.56;;;23.22
15360;BMP280;7779;49.596;11.070;2022-10-31T12:48:56;98466.19;;;23.24
15360;BMP280;7779;49.596;11.070;2022-10-31T12:51:50;98469.66;;;23.28
15360;BMP280;7779;49.596;11.070;2022-10-31T12:58:09;98449.25;;;23.35
15360;BMP280;7779;49.596;11.070;2022-10-31T13:00:42;98456.13;;;23.39
15360;BMP280;7779;49.596;11.070;2022-10-31T13:03:33;98451.00;;;23.42
15360;BMP280;7779;49.596;11.070;2022-10-31T13:06:09;98444.19;;;23.40
15360;BMP280;7779;49.596;11.070;2022-10-31T13:09:01;98448.44;;;23.41
15360;BMP280;7779;49.596;11.070;2022-10-31T13:11:50;98444.16;;;23.38
15360;BMP280;7779;49.596;11.070;2022-10-31T13:14:31;98441.59;;;23.37
15360;BMP280;7779;49.596;11.070;2022-10-31T13:17:00;98445.00;;;23.39
15360;BMP280;7779;49.596;11.070;2022-10-31T13:19:41;98433.97;;;23.41
15360;BMP280;7779;49.596;11.070;2022-10-31T13:22:22;98435.66;;;23.42
15360;BMP280;7779;49.596;11.070;2022-10-31T13:25:30;98435.72;;;23.45
15360;BMP280;7779;49.596;11.070;2022-10-31T13:28:09;98429.72;;;23.43
15360;BMP280;7779;49.596;11.070;2022-10-31T13:30:40;98420.34;;;23.42
15360;BMP280;7779;49.596;11.070;2022-10-31T13:33:33;98422.88;;;23.41
15360;BMP280;7779;49.596;11.070;2022-10-31T13:36:24;98416.91;;;23.37
15360;BMP280;7779;49.596;11.070;2022-10-31T13:42:15;98414.25;;;23.27
15360;BMP280;7779;49.596;11.070;2022-10-31T13:44:42;98414.22;;;23.24
15360;BMP280;7779;49.596;11.070;2022-10-31T13:47:27;98408.22;;;23.20
15360;BMP280;7779;49.596;11.070;2022-10-31T13:50:22;98409.91;;;23.17
15360;BMP280;7779;49.596;11.070;2022-10-31T13:52:48;98403.03;;;23.12
15360;BMP280;7779;49.596;11.070;2022-10-31T13:55:42;98398.78;;;23.09
15360;BMP280;7779;49.596;11.070;2022-10-31T13:58:28;98398.72;;;23.02
15360;BMP280;7779;49.596;11.070;2022-10-31T14:03:44;98399.47;;;22.90
15360;BMP280;7779;49.596;11.070;2022-10-31T14:06:11;98395.09;;;22.85
15360;BMP280;7779;49.596;11.070;2022-10-31T14:08:47;98383.13;;;22.79
15360;BMP280;7779;49.596;11.070;2022-10-31T14:11:26;98385.63;;;22.72
15360;BMP280;7779;49.596;11.070;2022-10-31T14:13:56;98383.88;;;22.65
15360;BMP280;7779;49.596;11.070;2022-10-31T14:16:29;98387.25;;;22.64
15360;BMP280;7779;49.596;11.070;2022-10-31T14:19:05;98377.00;;;22.61
15360;BMP280;7779;49.596;11.070;2022-10-31T14:21:40;98371.88;;;22.58
15360;BMP280;7779;49.596;11.070;2022-10-31T14:27:35;98371.00;;;22.55
15360;BMP280;7779;49.596;11.070;2022-10-31T14:29:50;98370.09;;;22.51
15360;BMP280;7779;49.596;11.070;2022-10-31T14:32:25;98362.41;;;22.50
15360;BMP280;7779;49.596;11.070;2022-10-31T14:34:56;98359.84;;;22.48
15360;BMP280;7779;49.596;11.070;2022-10-31T14:40:40;98357.22;;;22.41
15360;BMP280;7779;49.596;11.070;2022-10-31T14:51:48;98352.72;;;22.19
15360;BMP280;7779;49.596;11.070;2022-10-31T14:54:25;98349.22;;;22.13
15360;BMP280;7779;49.596;11.070;2022-10-31T14:56:57;98347.44;;;22.07
15360;BMP280;7779;49.596;11.070;2022-10-31T14:59:31;98340.56;;;22.02
15360;BMP280;7779;49.596;11.070;2022-10-31T15:02:09;98344.75;;;21.95
15360;BMP280;7779;49.596;11.070;2022-10-31T15:04:38;98334.50;;;21.90
15360;BMP280;7779;49.596;11.070;2022-10-31T15:07:22;98342.09;;;21.85
15360;BMP280;7779;49.596;11.070;2022-10-31T15:09:58;98334.31;;;21.76
15360;BMP280;7779;49.596;11.070;2022-10-31T15:12:34;98337.66;;;21.71
15360;BMP280;7779;49.596;11.070;2022-10-31T15:15:26;98331.59;;;21.61
15360;BMP280;7779;49.596;11.070;2022-10-31T15:17:59;98328.06;;;21.54
15360;BMP280;7779;49.596;11.070;2022-10-31T15:20:36;98335.63;;;21.48
15360;BMP280;7779;49.596;11.070;2022-10-31T15:23:04;98320.16;;;21.39
15360;BMP280;7779;49.596;11.070;2022-10-31T15:25:34;98322.66;;;21.33
15360;BMP280;7779;49.596;11.070;2022-10-31T15:28:00;98320.03;;;21.27
15360;BMP280;7779;49.596;11.070;2022-10-31T15:30:28;98325.03;;;21.22
15360;BMP280;7779;49.596;11.070;2022-10-31T15:32:54;98326.63;;;21.15
15360;BMP280;7779;49.596;11.070;2022-10-31T15:35:29;98314.66;;;21.09
15360;BMP280;7779;49.596;11.070;2022-10-31T15:37:57;98317.13;;;21.03
15360;BMP280;7779;49.596;11.070;2022-10-31T15:40:26;98317.00;;;20.97
15360;BMP280;7779;49.596;11.070;2022-10-31T15:43:00;98310.97;;;20.92
15360;BMP280;7779;49.596;11.070;2022-10-31T15:45:28;98316.00;;;20.86
15360;BMP280;7779;49.596;11.070;2022-10-31T15:48:00;98315.91;;;20.80
15360;BMP280;7779;49.596;11.070;2022-10-31T15:50:46;98304.72;;;20.73
15360;BMP280;7779;49.596;11.070;2022-10-31T15:54:03;98309.69;;;20.64
15360;BMP280;7779;49.596;11.070;2022-10-31T15:56:28;98314.59;;;20.55
15360;BMP280;7779;49.596;11.070;2022-10-31T15:58:56;98314.44;;;20.46
15360;BMP280;7779;49.596;11.070;2022-10-31T16:01:32;98321.06;;;20.38
15360;BMP280;7779;49.596;11.070;2022-10-31T16:04:22;98315.81;;;20.29
15360;BMP280;7779;49.596;11.070;2022-10-31T16:07:14;98317.28;;;20.18
15360;BMP280;7779;49.596;11.070;2022-10-31T16:10:00;98320.53;;;20.08
15360;BMP280;7779;49.596;11.070;2022-10-31T16:12:45;98313.56;;;20.00
15360;BMP280;7779;49.596;11.070;2022-10-31T16:15:16;98310.00;;;19.91
15360;BMP280;7779;49.596;11.070;2022-10-31T16:17:47;98312.38;;;19.83
15360;BMP280;7779;49.596;11.070;2022-10-31T16:20:27;98324.97;;;19.79
15360;BMP280;7779;49.596;11.070;2022-10-31T16:22:56;98330.75;;;19.70
15360;BMP280;7779;49.596;11.070;2022-10-31T16:25:32;98338.28;;;19.67
15360;BMP280;7779;49.596;11.070;2022-10-31T16:28:17;98331.41;;;19.62